sensor_id;sensor_type;location;lat;lon;timestamp;P1;durP1;ratioP1;P2;durP2;ratioP2
29432;SDS011;16405;53.964;13.448;2023-03-01T00:00:39;15.50;;;7.93;;
29432;SDS011;16405;53.964;13.448;2023-03-01T00:03:05;14.52;;;7.20;;
29432;SDS011;16405;53.964;13.448;2023-03-01T00:05:31;19.15;;;7.93;;
29432;SDS011;16405;53.964;13.448;2023-03-01T00:07:57;19.33;;;7.95;;
29432;SDS011;16405;53.964;13.448;2023-03-01T00:10:23;15.77;;;8.00;;
29432;SDS011;16405;53.964;13.448;2023-03-01T00:12:50;14.60;;;7.65;;
29432;SDS011;16405;53.964;13.448;2023-03-01T00:15:16;16.73;;;6.75;;
29432;SDS011;16405;53.964;13.448;2023-03-01T00:17:42;17.52;;;7.38;;
29432;SDS011;16405;53.964;13.448;2023-03-01T00:20:08;16.30;;;8.45;;
29432;SDS011;16405;53.964;13.448;2023-03-01T00:22:35;16.02;;;7.28;;
29432;SDS011;16405;53.964;13.448;2023-03-01T00:25:02;15.18;;;7.22;;
29432;SDS011;16405;53.964;13.448;2023-03-01T00:27:28;17.65;;;6.75;;
29432;SDS011;16405;53.964;13.448;2023-03-01T00:29:54;13.32;;;7.50;;
29432;SDS011;16405;53.964;13.448;2023-03-01T00:32:20;19.42;;;8.52;;
29432;SDS011;16405;53.964;13.448;2023-03-01T00:34:46;14.38;;;7.53;;
29432;SDS011;16405;53.964;13.448;2023-03-01T00:37:19;12.68;;;6.25;;
29432;SDS011;16405;53.964;13.448;2023-03-01T00:39:49;14.43;;;7.85;;
29432;SDS011;16405;53.964;13.448;2023-03-01T00:42:15;16.08;;;7.68;;
29432;SDS011;16405;53.964;13.448;2023-03-01T00:44:42;15.90;;;7.47;;
29432;SDS011;16405;53.964;13.448;2023-03-01T00:47:08;14.25;;;7.50;;
29432;SDS011;16405;53.964;13.448;2023-03-01T00:49:34;16.08;;;7.72;;
29432;SDS011;16405;53.964;13.448;2023-03-01T00:52:00;14.23;;;7.63;;
29432;SDS011;16405;53.964;13.448;2023-03-01T00:54:25;18.92;;;8.00;;
29432;SDS011;16405;53.964;13.448;2023-03-01T00:56:51;19.50;;;7.75;;
29432;SDS011;16405;53.964;13.448;2023-03-01T00:59:19;12.00;;;7.03;;
29432;SDS011;16405;53.964;13.448;2023-03-01T01:01:45;14.05;;;6.72;;
29432;SDS011;16405;53.964;13.448;2023-03-01T01:04:12;15.15;;;7.30;;
29432;SDS011;16405;53.964;13.448;2023-03-01T01:06:39;16.42;;;7.32;;
29432;SDS011;16405;53.964;13.448;2023-03-01T01:09:12;13.05;;;6.70;;
29432;SDS011;16405;53.964;13.448;2023-03-01T01:11:42;13.50;;;6.22;;
29432;SDS011;16405;53.964;13.448;2023-03-01T01:14:14;16.48;;;6.70;;
29432;SDS011;16405;53.964;13.448;2023-03-01T01:16:40;11.68;;;6.03;;
29432;SDS011;16405;53.964;13.448;2023-03-01T01:19:06;18.70;;;6.90;;
29432;SDS011;16405;53.964;13.448;2023-03-01T01:21:34;15.70;;;6.63;;
29432;SDS011;16405;53.964;13.448;2023-03-01T01:23:59;15.32;;;6.65;;
29432;SDS011;16405;53.964;13.448;2023-03-01T01:26:28;18.65;;;6.80;;
29432;SDS011;16405;53.964;13.448;2023-03-01T01:28:57;13.65;;;6.63;;
29432;SDS011;16405;53.964;13.448;2023-03-01T01:31:24;15.40;;;6.55;;
29432;SDS011;16405;53.964;13.448;2023-03-01T01:33:51;14.27;;;6.45;;
29432;SDS011;16405;53.964;13.448;2023-03-01T01:36:18;12.55;;;6.30;;
29432;SDS011;16405;53.964;13.448;2023-03-01T01:38:44;11.65;;;6.40;;
29432;SDS011;16405;53.964;13.448;2023-03-01T01:41:11;14.77;;;6.57;;
29432;SDS011;16405;53.964;13.448;2023-03-01T01:43:40;10.88;;;6.47;;
29432;SDS011;16405;53.964;13.448;2023-03-01T01:48:58;15.68;;;7.32;;
29432;SDS011;16405;53.964;13.448;2023-03-01T01:51:32;13.82;;;6.32;;
29432;SDS011;16405;53.964;13.448;2023-03-01T01:54:26;13.48;;;6.50;;
29432;SDS011;16405;53.964;13.448;2023-03-01T01:57:03;15.90;;;6.23;;
29432;SDS011;16405;53.964;13.448;2023-03-01T01:59:58;16.67;;;6.78;;
29432;SDS011;16405;53.964;13.448;2023-03-01T02:02:30;14.38;;;6.82;;
29432;SDS011;16405;53.964;13.448;2023-03-01T02:05:20;14.93;;;6.95;;
29432;SDS011;16405;53.964;13.448;2023-03-01T02:07:42;15.75;;;6.82;;
29432;SDS011;16405;53.964;13.448;2023-03-01T02:10:09;13.52;;;7.03;;
29432;SDS011;16405;53.964;13.448;2023-03-01T02:12:35;16.70;;;7.10;;
29432;SDS011;16405;53.964;13.448;2023-03-01T02:15:03;14.48;;;7.00;;
29432;SDS011;16405;53.964;13.448;2023-03-01T02:17:30;21.05;;;7.85;;
29432;SDS011;16405;53.964;13.448;2023-03-01T02:22:43;11.15;;;6.50;;
29432;SDS011;16405;53.964;13.448;2023-03-01T02:30:41;10.35;;;4.40;;
29432;SDS011;16405;53.964;13.448;2023-03-01T02:33:29;15.10;;;5.78;;
29432;SDS011;16405;53.964;13.448;2023-03-01T02:36:01;12.13;;;6.03;;
29432;SDS011;16405;53.964;13.448;2023-03-01T02:38:36;11.43;;;6.10;;
29432;SDS011;16405;53.964;13.448;2023-03-01T02:41:02;14.38;;;6.05;;
29432;SDS011;16405;53.964;13.448;2023-03-01T02:43:31;15.15;;;6.43;;
29432;SDS011;16405;53.964;13.448;2023-03-01T02:46:07;17.75;;;7.95;;
29432;SDS011;16405;53.964;13.448;2023-03-01T02:48:43;13.50;;;6.70;;
29432;SDS011;16405;53.964;13.448;2023-03-01T02:56:39;19.75;;;7.95;;
29432;SDS011;16405;53.964;13.448;2023-03-01T02:59:08;16.05;;;7.18;;
29432;SDS011;16405;53.964;13.448;2023-03-01T03:01:35;15.95;;;6.63;;
29432;SDS011;16405;53.964;13.448;2023-03-01T03:04:07;14.55;;;7.00;;
29432;SDS011;16405;53.964;13.448;2023-03-01T03:06:42;13.55;;;6.80;;
29432;SDS011;16405;53.964;13.448;2023-03-01T03:09:13;13.75;;;6.53;;
29432;SDS011;16405;53.964;13.448;2023-03-01T03:11:40;11.60;;;6.45;;
29432;SDS011;16405;53.964;13.448;2023-03-01T03:14:08;11.85;;;6.20;;
29432;SDS011;16405;53.964;13.448;2023-03-01T03:16:49;15.40;;;6.68;;
29432;SDS011;16405;53.964;13.448;2023-03-01T03:19:16;18.52;;;7.00;;
29432;SDS011;16405;53.964;13.448;2023-03-01T03:21:44;16.20;;;7.78;;
29432;SDS011;16405;53.964;13.448;2023-03-01T03:24:10;15.57;;;7.65;;
29432;SDS011;16405;53.964;13.448;2023-03-01T03:26:36;16.02;;;7.55;;
29432;SDS011;16405;53.964;13.448;2023-03-01T03:29:02;11.75;;;6.75;;
29432;SDS011;16405;53.964;13.448;2023-03-01T03:31:28;14.85;;;7.43;;
29432;SDS011;16405;53.964;13.448;2023-03-01T03:33:54;20.33;;;7.18;;
29432;SDS011;16405;53.964;13.448;2023-03-01T03:36:22;18.55;;;8.27;;
29432;SDS011;16405;53.964;13.448;2023-03-01T03:38:49;15.85;;;7.38;;
29432;SDS011;16405;53.964;13.448;2023-03-01T03:41:16;15.45;;;7.25;;
29432;SDS011;16405;53.964;13.448;2023-03-01T03:43:43;12.02;;;6.38;;
29432;SDS011;16405;53.964;13.448;2023-03-01T03:46:10;13.73;;;7.00;;
29432;SDS011;16405;53.964;13.448;2023-03-01T03:48:38;16.55;;;6.88;;
29432;SDS011;16405;53.964;13.448;2023-03-01T03:51:07;15.43;;;6.90;;
29432;SDS011;16405;53.964;13.448;2023-03-01T03:53:40;15.05;;;7.50;;
29432;SDS011;16405;53.964;13.448;2023-03-01T03:56:06;13.73;;;6.82;;
29432;SDS011;16405;53.964;13.448;2023-03-01T03:58:32;13.88;;;6.93;;
29432;SDS011;16405;53.964;13.448;2023-03-01T04:00:59;16.65;;;7.88;;
29432;SDS011;16405;53.964;13.448;2023-03-01T04:03:26;14.48;;;6.90;;
29432;SDS011;16405;53.964;13.448;2023-03-01T04:05:53;15.48;;;7.40;;
29432;SDS011;16405;53.964;13.448;2023-03-01T04:08:20;17.92;;;7.40;;
29432;SDS011;16405;53.964;13.448;2023-03-01T04:10:49;16.77;;;7.95;;
29432;SDS011;16405;53.964;13.448;2023-03-01T04:13:19;13.88;;;6.97;;
29432;SDS011;16405;53.964;13.448;2023-03-01T04:15:53;17.77;;;7.70;;
29432;SDS011;16405;53.964;13.448;2023-03-01T04:18:20;12.90;;;6.82;;
29432;SDS011;16405;53.964;13.448;2023-03-01T04:20:49;16.67;;;7.22;;
29432;SDS011;16405;53.964;13.448;2023-03-01T04:23:18;16.48;;;7.70;;
29432;SDS011;16405;53.964;13.448;2023-03-01T04:25:49;14.20;;;7.43;;
29432;SDS011;16405;53.964;13.448;2023-03-01T04:28:42;13.45;;;7.38;;
29432;SDS011;16405;53.964;13.448;2023-03-01T04:31:12;20.08;;;8.38;;
29432;SDS011;16405;53.964;13.448;2023-03-01T04:33:43;24.58;;;10.68;;
29432;SDS011;16405;53.964;13.448;2023-03-01T04:36:29;16.35;;;7.78;;
29432;SDS011;16405;53.964;13.448;2023-03-01T04:38:55;15.30;;;6.83;;
29432;SDS011;16405;53.964;13.448;2023-03-01T04:41:22;15.48;;;6.75;;
29432;SDS011;16405;53.964;13.448;2023-03-01T04:43:49;13.52;;;6.30;;
29432;SDS011;16405;53.964;13.448;2023-03-01T04:46:16;18.88;;;7.50;;
29432;SDS011;16405;53.964;13.448;2023-03-01T04:48:44;15.80;;;7.72;;
29432;SDS011;16405;53.964;13.448;2023-03-01T04:51:12;17.45;;;7.93;;
29432;SDS011;16405;53.964;13.448;2023-03-01T04:53:41;16.75;;;7.95;;
29432;SDS011;16405;53.964;13.448;2023-03-01T04:56:08;20.73;;;7.57;;
29432;SDS011;16405;53.964;13.448;2023-03-01T04:58:34;19.33;;;7.63;;
29432;SDS011;16405;53.964;13.448;2023-03-01T05:00:59;16.88;;;7.65;;
29432;SDS011;16405;53.964;13.448;2023-03-01T05:03:25;19.60;;;7.95;;
29432;SDS011;16405;53.964;13.448;2023-03-01T05:05:53;16.10;;;7.60;;
29432;SDS011;16405;53.964;13.448;2023-03-01T05:08:19;14.68;;;7.68;;
29432;SDS011;16405;53.964;13.448;2023-03-01T05:10:49;25.10;;;8.45;;
29432;SDS011;16405;53.964;13.448;2023-03-01T05:13:17;38.47;;;9.10;;
29432;SDS011;16405;53.964;13.448;2023-03-01T05:15:57;23.63;;;7.53;;
29432;SDS011;16405;53.964;13.448;2023-03-01T05:18:25;17.38;;;7.72;;
29432;SDS011;16405;53.964;13.448;2023-03-01T05:20:55;14.32;;;7.55;;
29432;SDS011;16405;53.964;13.448;2023-03-01T05:23:36;13.77;;;7.45;;
29432;SDS011;16405;53.964;13.448;2023-03-01T05:26:03;13.45;;;7.25;;
29432;SDS011;16405;53.964;13.448;2023-03-01T05:28:31;15.35;;;7.30;;
29432;SDS011;16405;53.964;13.448;2023-03-01T05:30:59;16.85;;;7.38;;
29432;SDS011;16405;53.964;13.448;2023-03-01T05:33:26;16.48;;;6.78;;
29432;SDS011;16405;53.964;13.448;2023-03-01T05:35:52;17.48;;;7.05;;
29432;SDS011;16405;53.964;13.448;2023-03-01T05:38:19;11.93;;;6.40;;
29432;SDS011;16405;53.964;13.448;2023-03-01T05:40:47;14.25;;;6.38;;
29432;SDS011;16405;53.964;13.448;2023-03-01T05:43:15;15.25;;;6.63;;
29432;SDS011;16405;53.964;13.448;2023-03-01T05:45:42;12.05;;;6.57;;
29432;SDS011;16405;53.964;13.448;2023-03-01T05:48:09;13.55;;;6.43;;
29432;SDS011;16405;53.964;13.448;2023-03-01T05:50:37;12.90;;;6.95;;
29432;SDS011;16405;53.964;13.448;2023-03-01T05:53:13;13.27;;;6.68;;
29432;SDS011;16405;53.964;13.448;2023-03-01T05:55:42;14.38;;;6.75;;
29432;SDS011;16405;53.964;13.448;2023-03-01T05:58:11;16.65;;;7.32;;
29432;SDS011;16405;53.964;13.448;2023-03-01T06:00:40;14.82;;;6.90;;
29432;SDS011;16405;53.964;13.448;2023-03-01T06:03:09;12.70;;;6.68;;
29432;SDS011;16405;53.964;13.448;2023-03-01T06:05:39;14.45;;;7.43;;
29432;SDS011;16405;53.964;13.448;2023-03-01T06:08:06;13.82;;;7.03;;
29432;SDS011;16405;53.964;13.448;2023-03-01T06:10:32;15.90;;;6.63;;
29432;SDS011;16405;53.964;13.448;2023-03-01T06:12:58;14.80;;;6.70;;
29432;SDS011;16405;53.964;13.448;2023-03-01T06:15:24;11.60;;;5.90;;
29432;SDS011;16405;53.964;13.448;2023-03-01T06:17:50;13.18;;;6.60;;
29432;SDS011;16405;53.964;13.448;2023-03-01T06:20:20;15.48;;;6.82;;
29432;SDS011;16405;53.964;13.448;2023-03-01T06:22:48;11.70;;;6.35;;
29432;SDS011;16405;53.964;13.448;2023-03-01T06:25:15;13.85;;;6.57;;
29432;SDS011;16405;53.964;13.448;2023-03-01T06:27:44;21.52;;;6.93;;
29432;SDS011;16405;53.964;13.448;2023-03-01T06:30:11;21.80;;;7.07;;
29432;SDS011;16405;53.964;13.448;2023-03-01T06:32:39;13.57;;;7.18;;
29432;SDS011;16405;53.964;13.448;2023-03-01T06:35:09;23.20;;;7.85;;
29432;SDS011;16405;53.964;13.448;2023-03-01T06:37:36;20.25;;;7.30;;
29432;SDS011;16405;53.964;13.448;2023-03-01T06:40:03;13.48;;;6.93;;
29432;SDS011;16405;53.964;13.448;2023-03-01T06:42:38;14.73;;;7.22;;
29432;SDS011;16405;53.964;13.448;2023-03-01T06:45:05;13.52;;;6.55;;
29432;SDS011;16405;53.964;13.448;2023-03-01T06:47:32;16.00;;;5.97;;
29432;SDS011;16405;53.964;13.448;2023-03-01T06:49:59;12.20;;;6.07;;
29432;SDS011;16405;53.964;13.448;2023-03-01T06:52:27;12.65;;;6.63;;
29432;SDS011;16405;53.964;13.448;2023-03-01T06:54:53;9.85;;;5.63;;
29432;SDS011;16405;53.964;13.448;2023-03-01T06:57:19;15.40;;;6.15;;
29432;SDS011;16405;53.964;13.448;2023-03-01T06:59:46;16.55;;;7.38;;
29432;SDS011;16405;53.964;13.448;2023-03-01T07:02:13;15.82;;;6.13;;
29432;SDS011;16405;53.964;13.448;2023-03-01T07:04:40;12.27;;;4.85;;
29432;SDS011;16405;53.964;13.448;2023-03-01T07:07:06;12.13;;;6.18;;
29432;SDS011;16405;53.964;13.448;2023-03-01T07:09:33;11.75;;;5.40;;
29432;SDS011;16405;53.964;13.448;2023-03-01T07:11:59;11.57;;;5.00;;
29432;SDS011;16405;53.964;13.448;2023-03-01T07:14:25;12.48;;;4.55;;
29432;SDS011;16405;53.964;13.448;2023-03-01T07:16:54;10.88;;;4.68;;
29432;SDS011;16405;53.964;13.448;2023-03-01T07:19:20;15.20;;;5.68;;
29432;SDS011;16405;53.964;13.448;2023-03-01T07:21:47;10.13;;;5.38;;
29432;SDS011;16405;53.964;13.448;2023-03-01T07:24:13;10.05;;;5.15;;
29432;SDS011;16405;53.964;13.448;2023-03-01T07:26:39;12.48;;;5.20;;
29432;SDS011;16405;53.964;13.448;2023-03-01T07:29:06;9.60;;;4.82;;
29432;SDS011;16405;53.964;13.448;2023-03-01T07:31:34;9.73;;;4.82;;
29432;SDS011;16405;53.964;13.448;2023-03-01T07:34:01;11.20;;;5.43;;
29432;SDS011;16405;53.964;13.448;2023-03-01T07:36:27;10.00;;;5.13;;
29432;SDS011;16405;53.964;13.448;2023-03-01T07:38:53;11.77;;;5.10;;
29432;SDS011;16405;53.964;13.448;2023-03-01T07:41:20;9.02;;;4.68;;
29432;SDS011;16405;53.964;13.448;2023-03-01T07:43:46;8.93;;;4.13;;
29432;SDS011;16405;53.964;13.448;2023-03-01T07:46:12;10.90;;;5.35;;
29432;SDS011;16405;53.964;13.448;2023-03-01T07:48:38;8.48;;;4.97;;
29432;SDS011;16405;53.964;13.448;2023-03-01T07:51:05;10.65;;;4.93;;
29432;SDS011;16405;53.964;13.448;2023-03-01T07:53:32;9.20;;;5.07;;
29432;SDS011;16405;53.964;13.448;2023-03-01T07:56:09;9.38;;;4.57;;
29432;SDS011;16405;53.964;13.448;2023-03-01T07:58:37;8.95;;;5.10;;
29432;SDS011;16405;53.964;13.448;2023-03-01T08:01:07;8.73;;;4.95;;
29432;SDS011;16405;53.964;13.448;2023-03-01T08:03:36;8.63;;;4.65;;
29432;SDS011;16405;53.964;13.448;2023-03-01T08:06:03;10.07;;;4.78;;
29432;SDS011;16405;53.964;13.448;2023-03-01T08:08:32;9.02;;;4.70;;
29432;SDS011;16405;53.964;13.448;2023-03-01T08:10:59;10.63;;;4.85;;
29432;SDS011;16405;53.964;13.448;2023-03-01T08:13:27;6.97;;;4.28;;
29432;SDS011;16405;53.964;13.448;2023-03-01T08:15:53;8.63;;;4.93;;
29432;SDS011;16405;53.964;13.448;2023-03-01T08:18:20;6.88;;;4.57;;
29432;SDS011;16405;53.964;13.448;2023-03-01T08:20:46;8.52;;;4.90;;
29432;SDS011;16405;53.964;13.448;2023-03-01T08:23:12;8.85;;;5.15;;
29432;SDS011;16405;53.964;13.448;2023-03-01T08:25:38;8.20;;;5.00;;
29432;SDS011;16405;53.964;13.448;2023-03-01T08:28:05;9.32;;;5.60;;
29432;SDS011;16405;53.964;13.448;2023-03-01T08:30:31;9.30;;;4.68;;
29432;SDS011;16405;53.964;13.448;2023-03-01T08:32:58;9.35;;;5.72;;
29432;SDS011;16405;53.964;13.448;2023-03-01T08:35:23;10.50;;;5.85;;
29432;SDS011;16405;53.964;13.448;2023-03-01T08:37:49;13.60;;;6.90;;
29432;SDS011;16405;53.964;13.448;2023-03-01T08:40:15;14.27;;;6.72;;
29432;SDS011;16405;53.964;13.448;2023-03-01T08:42:41;8.93;;;5.82;;
29432;SDS011;16405;53.964;13.448;2023-03-01T08:45:10;32.42;;;28.65;;
29432;SDS011;16405;53.964;13.448;2023-03-01T08:47:36;11.75;;;6.78;;
29432;SDS011;16405;53.964;13.448;2023-03-01T08:50:03;10.35;;;7.03;;
29432;SDS011;16405;53.964;13.448;2023-03-01T08:52:29;11.82;;;7.50;;
29432;SDS011;16405;53.964;13.448;2023-03-01T08:54:56;11.85;;;7.32;;
29432;SDS011;16405;53.964;13.448;2023-03-01T08:57:22;13.15;;;8.25;;
29432;SDS011;16405;53.964;13.448;2023-03-01T08:59:48;12.23;;;8.93;;
29432;SDS011;16405;53.964;13.448;2023-03-01T09:02:15;15.98;;;10.45;;
29432;SDS011;16405;53.964;13.448;2023-03-01T09:04:42;18.08;;;11.23;;
29432;SDS011;16405;53.964;13.448;2023-03-01T09:07:12;22.17;;;12.48;;
29432;SDS011;16405;53.964;13.448;2023-03-01T09:09:38;19.50;;;12.10;;
29432;SDS011;16405;53.964;13.448;2023-03-01T09:12:04;16.42;;;10.70;;
29432;SDS011;16405;53.964;13.448;2023-03-01T09:14:30;18.10;;;12.50;;
29432;SDS011;16405;53.964;13.448;2023-03-01T09:16:56;16.20;;;11.15;;
29432;SDS011;16405;53.964;13.448;2023-03-01T09:19:22;18.00;;;11.48;;
29432;SDS011;16405;53.964;13.448;2023-03-01T09:21:49;19.50;;;12.25;;
29432;SDS011;16405;53.964;13.448;2023-03-01T09:24:18;28.65;;;21.35;;
29432;SDS011;16405;53.964;13.448;2023-03-01T09:26:46;24.27;;;14.32;;
29432;SDS011;16405;53.964;13.448;2023-03-01T09:29:15;26.33;;;14.23;;
29432;SDS011;16405;53.964;13.448;2023-03-01T09:31:44;22.33;;;13.98;;
29432;SDS011;16405;53.964;13.448;2023-03-01T09:34:10;24.48;;;14.30;;
29432;SDS011;16405;53.964;13.448;2023-03-01T09:36:38;28.90;;;16.55;;
29432;SDS011;16405;53.964;13.448;2023-03-01T09:39:11;24.05;;;14.93;;
29432;SDS011;16405;53.964;13.448;2023-03-01T09:41:44;23.83;;;15.25;;
29432;SDS011;16405;53.964;13.448;2023-03-01T09:44:38;22.92;;;14.55;;
29432;SDS011;16405;53.964;13.448;2023-03-01T09:47:28;23.88;;;15.40;;
29432;SDS011;16405;53.964;13.448;2023-03-01T09:50:02;25.08;;;15.85;;
29432;SDS011;16405;53.964;13.448;2023-03-01T09:52:46;26.35;;;16.55;;
29432;SDS011;16405;53.964;13.448;2023-03-01T09:55:31;26.85;;;16.92;;
29432;SDS011;16405;53.964;13.448;2023-03-01T09:58:15;26.83;;;17.23;;
29432;SDS011;16405;53.964;13.448;2023-03-01T10:01:26;29.80;;;17.08;;
29432;SDS011;16405;53.964;13.448;2023-03-01T10:10:05;27.27;;;16.50;;
29432;SDS011;16405;53.964;13.448;2023-03-01T10:12:56;27.63;;;17.40;;
29432;SDS011;16405;53.964;13.448;2023-03-01T10:15:49;32.38;;;18.10;;
29432;SDS011;16405;53.964;13.448;2023-03-01T10:18:23;32.35;;;17.95;;
29432;SDS011;16405;53.964;13.448;2023-03-01T10:23:37;33.90;;;18.70;;
29432;SDS011;16405;53.964;13.448;2023-03-01T10:26:06;27.98;;;17.13;;
29432;SDS011;16405;53.964;13.448;2023-03-01T10:31:38;30.15;;;18.02;;
29432;SDS011;16405;53.964;13.448;2023-03-01T10:34:33;31.02;;;18.27;;
29432;SDS011;16405;53.964;13.448;2023-03-01T10:37:17;34.30;;;19.73;;
29432;SDS011;16405;53.964;13.448;2023-03-01T10:40:09;33.25;;;21.05;;
29432;SDS011;16405;53.964;13.448;2023-03-01T10:42:39;32.75;;;17.63;;
29432;SDS011;16405;53.964;13.448;2023-03-01T10:50:48;33.58;;;19.02;;
29432;SDS011;16405;53.964;13.448;2023-03-01T10:53:43;37.05;;;21.65;;
29432;SDS011;16405;53.964;13.448;2023-03-01T10:56:15;33.40;;;20.83;;
29432;SDS011;16405;53.964;13.448;2023-03-01T11:01:31;31.50;;;18.27;;
29432;SDS011;16405;53.964;13.448;2023-03-01T11:06:41;37.85;;;21.10;;
29432;SDS011;16405;53.964;13.448;2023-03-01T11:09:25;33.85;;;19.70;;
29432;SDS011;16405;53.964;13.448;2023-03-01T11:12:03;33.05;;;17.95;;
29432;SDS011;16405;53.964;13.448;2023-03-01T11:14:45;33.33;;;19.23;;
29432;SDS011;16405;53.964;13.448;2023-03-01T11:17:27;34.33;;;20.55;;
29432;SDS011;16405;53.964;13.448;2023-03-01T11:22:55;33.50;;;20.13;;
29432;SDS011;16405;53.964;13.448;2023-03-01T11:25:36;29.55;;;16.05;;
29432;SDS011;16405;53.964;13.448;2023-03-01T11:28:09;32.55;;;17.70;;
29432;SDS011;16405;53.964;13.448;2023-03-01T11:39:17;30.42;;;18.10;;
29432;SDS011;16405;53.964;13.448;2023-03-01T11:44:54;32.63;;;19.95;;
29432;SDS011;16405;53.964;13.448;2023-03-01T11:50:47;32.33;;;20.48;;
29432;SDS011;16405;53.964;13.448;2023-03-01T11:55:50;28.70;;;18.00;;
29432;SDS011;16405;53.964;13.448;2023-03-01T12:04:48;30.17;;;17.27;;
29432;SDS011;16405;53.964;13.448;2023-03-01T12:23:17;27.58;;;16.45;;
29432;SDS011;16405;53.964;13.448;2023-03-01T12:38:18;26.75;;;13.95;;
29432;SDS011;16405;53.964;13.448;2023-03-01T12:49:52;24.73;;;14.20;;
29432;SDS011;16405;53.964;13.448;2023-03-01T12:52:27;26.40;;;15.32;;
29432;SDS011;16405;53.964;13.448;2023-03-01T12:58:04;27.58;;;13.48;;
29432;SDS011;16405;53.964;13.448;2023-03-01T13:01:01;29.63;;;15.30;;
29432;SDS011;16405;53.964;13.448;2023-03-01T13:17:51;25.23;;;15.18;;
29432;SDS011;16405;53.964;13.448;2023-03-01T13:20:21;25.58;;;14.48;;
29432;SDS011;16405;53.964;13.448;2023-03-01T13:23:02;27.27;;;14.10;;
29432;SDS011;16405;53.964;13.448;2023-03-01T13:26:05;28.92;;;13.80;;
29432;SDS011;16405;53.964;13.448;2023-03-01T13:28:44;26.70;;;14.52;;
29432;SDS011;16405;53.964;13.448;2023-03-01T13:33:48;26.42;;;14.15;;
29432;SDS011;16405;53.964;13.448;2023-03-01T13:44:48;25.40;;;14.18;;
29432;SDS011;16405;53.964;13.448;2023-03-01T13:49:42;26.20;;;15.27;;
29432;SDS011;16405;53.964;13.448;2023-03-01T13:57:39;21.33;;;12.90;;
29432;SDS011;16405;53.964;13.448;2023-03-01T14:00:24;24.45;;;14.70;;
29432;SDS011;16405;53.964;13.448;2023-03-01T14:03:00;25.23;;;15.43;;
29432;SDS011;16405;53.964;13.448;2023-03-01T14:05:38;24.67;;;14.07;;
29432;SDS011;16405;53.964;13.448;2023-03-01T14:08:22;24.65;;;15.43;;
29432;SDS011;16405;53.964;13.448;2023-03-01T14:10:58;25.77;;;14.80;;
29432;SDS011;16405;53.964;13.448;2023-03-01T14:18:46;29.52;;;18.50;;
29432;SDS011;16405;53.964;13.448;2023-03-01T14:21:35;28.17;;;18.77;;
29432;SDS011;16405;53.964;13.448;2023-03-01T14:24:01;31.77;;;19.50;;
29432;SDS011;16405;53.964;13.448;2023-03-01T14:26:31;33.88;;;21.42;;
29432;SDS011;16405;53.964;13.448;2023-03-01T14:29:00;35.13;;;20.95;;
29432;SDS011;16405;53.964;13.448;2023-03-01T14:34:04;36.03;;;21.02;;
29432;SDS011;16405;53.964;13.448;2023-03-01T14:36:32;33.72;;;20.63;;
29432;SDS011;16405;53.964;13.448;2023-03-01T14:39:15;37.85;;;21.05;;
29432;SDS011;16405;53.964;13.448;2023-03-01T14:41:43;38.38;;;22.95;;
29432;SDS011;16405;53.964;13.448;2023-03-01T14:44:14;39.25;;;23.45;;
29432;SDS011;16405;53.964;13.448;2023-03-01T14:46:51;40.88;;;24.13;;
29432;SDS011;16405;53.964;13.448;2023-03-01T14:49:30;37.83;;;23.83;;
29432;SDS011;16405;53.964;13.448;2023-03-01T14:57:20;41.40;;;25.33;;
29432;SDS011;16405;53.964;13.448;2023-03-01T14:59:50;45.53;;;27.40;;
29432;SDS011;16405;53.964;13.448;2023-03-01T15:02:19;44.42;;;27.15;;
29432;SDS011;16405;53.964;13.448;2023-03-01T15:04:53;47.88;;;28.48;;
29432;SDS011;16405;53.964;13.448;2023-03-01T15:07:21;48.25;;;28.85;;
29432;SDS011;16405;53.964;13.448;2023-03-01T15:09:58;47.42;;;28.38;;
29432;SDS011;16405;53.964;13.448;2023-03-01T15:14:57;52.80;;;30.48;;
29432;SDS011;16405;53.964;13.448;2023-03-01T15:17:33;58.38;;;33.22;;
29432;SDS011;16405;53.964;13.448;2023-03-01T15:20:13;54.88;;;30.75;;
29432;SDS011;16405;53.964;13.448;2023-03-01T15:22:45;57.90;;;33.53;;
29432;SDS011;16405;53.964;13.448;2023-03-01T15:25:15;61.60;;;33.15;;
29432;SDS011;16405;53.964;13.448;2023-03-01T15:27:47;63.42;;;34.17;;
29432;SDS011;16405;53.964;13.448;2023-03-01T15:35:45;61.17;;;34.00;;
29432;SDS011;16405;53.964;13.448;2023-03-01T15:38:33;62.00;;;34.83;;
29432;SDS011;16405;53.964;13.448;2023-03-01T15:41:05;67.03;;;34.97;;
29432;SDS011;16405;53.964;13.448;2023-03-01T15:43:58;67.80;;;37.13;;
29432;SDS011;16405;53.964;13.448;2023-03-01T15:49:01;74.53;;;38.05;;
29432;SDS011;16405;53.964;13.448;2023-03-01T15:51:50;75.40;;;37.15;;
29432;SDS011;16405;53.964;13.448;2023-03-01T15:54:20;80.47;;;39.15;;
29432;SDS011;16405;53.964;13.448;2023-03-01T15:56:50;79.20;;;40.63;;
29432;SDS011;16405;53.964;13.448;2023-03-01T15:59:16;74.85;;;38.95;;
29432;SDS011;16405;53.964;13.448;2023-03-01T16:01:43;72.40;;;36.88;;
29432;SDS011;16405;53.964;13.448;2023-03-01T16:04:10;68.15;;;36.50;;
29432;SDS011;16405;53.964;13.448;2023-03-01T16:06:54;79.13;;;37.70;;
29432;SDS011;16405;53.964;13.448;2023-03-01T16:09:25;74.82;;;38.13;;
29432;SDS011;16405;53.964;13.448;2023-03-01T16:11:52;83.13;;;38.78;;
29432;SDS011;16405;53.964;13.448;2023-03-01T16:14:19;77.47;;;37.72;;
29432;SDS011;16405;53.964;13.448;2023-03-01T16:16:45;86.40;;;39.65;;
29432;SDS011;16405;53.964;13.448;2023-03-01T16:19:13;80.75;;;40.20;;
29432;SDS011;16405;53.964;13.448;2023-03-01T16:21:39;85.43;;;40.00;;
29432;SDS011;16405;53.964;13.448;2023-03-01T16:24:11;89.32;;;41.65;;
29432;SDS011;16405;53.964;13.448;2023-03-01T16:26:39;90.93;;;41.03;;
29432;SDS011;16405;53.964;13.448;2023-03-01T16:29:05;83.25;;;40.10;;
29432;SDS011;16405;53.964;13.448;2023-03-01T16:31:31;87.07;;;40.20;;
29432;SDS011;16405;53.964;13.448;2023-03-01T16:33:58;83.18;;;41.00;;
29432;SDS011;16405;53.964;13.448;2023-03-01T16:36:25;88.25;;;41.80;;
29432;SDS011;16405;53.964;13.448;2023-03-01T16:38:53;81.55;;;38.90;;
29432;SDS011;16405;53.964;13.448;2023-03-01T16:41:21;79.38;;;35.45;;
29432;SDS011;16405;53.964;13.448;2023-03-01T16:43:48;97.95;;;43.88;;
29432;SDS011;16405;53.964;13.448;2023-03-01T16:48:49;88.07;;;40.65;;
29432;SDS011;16405;53.964;13.448;2023-03-01T16:51:16;93.30;;;40.92;;
29432;SDS011;16405;53.964;13.448;2023-03-01T16:53:43;71.60;;;34.45;;
29432;SDS011;16405;53.964;13.448;2023-03-01T16:56:10;66.95;;;33.25;;
29432;SDS011;16405;53.964;13.448;2023-03-01T16:58:39;55.70;;;30.67;;
29432;SDS011;16405;53.964;13.448;2023-03-01T17:03:31;68.20;;;32.97;;
29432;SDS011;16405;53.964;13.448;2023-03-01T17:06:00;64.72;;;31.10;;
29432;SDS011;16405;53.964;13.448;2023-03-01T17:08:30;103.22;;;40.88;;
29432;SDS011;16405;53.964;13.448;2023-03-01T17:11:10;101.22;;;42.72;;
29432;SDS011;16405;53.964;13.448;2023-03-01T17:13:40;118.38;;;44.28;;
29432;SDS011;16405;53.964;13.448;2023-03-01T17:16:07;123.72;;;45.67;;
29432;SDS011;16405;53.964;13.448;2023-03-01T17:18:35;143.57;;;49.03;;
29432;SDS011;16405;53.964;13.448;2023-03-01T17:21:02;100.65;;;41.58;;
29432;SDS011;16405;53.964;13.448;2023-03-01T17:23:30;119.47;;;42.80;;